Time;durP1;ratioP1;P1;durP2;ratioP2;P2;SDS_P1;SDS_P2;PMS_P1;PMS_P2;Temp;Humidity;BMP_temperature;BMP_pressure;BME280_temperature;BME280_humidity;BME280_pressure;Samples;Min_cycle;Max_cycle;Signal;HPM_P1;HPM_P2
2022/01/24 00:01:28;;;;;;;;;54.50;41.00;;;;;4.81;66.84;102905.41;5034274;28;46411;-46
2022/01/24 00:03:57;;;;;;;;;52.50;37.50;;;;;4.80;67.58;102906.31;5034310;28;45439;-44
2022/01/24 00:06:24;;;;;;;;;38.50;34.00;;;;;4.77;67.75;102912.56;5034140;28;45356;-44
2022/01/24 00:08:50;;;;;;;;;48.00;35.75;;;;;4.75;67.55;102914.38;5034506;28;45440;-45
2022/01/24 00:11:20;;;;;;;;;49.75;39.00;;;;;4.67;67.50;102898.84;5034083;28;45374;-44
2022/01/24 00:16:58;;;;;;;;;45.50;34.75;;;;;4.73;67.99;102900.41;5034225;28;45285;-46
2022/01/24 00:27:14;;;;;;;;;48.50;36.25;;;;;4.68;68.12;102897.97;5100611;27;45317;-46
2022/01/24 00:29:39;;;;;;;;;37.75;27.25;;;;;4.67;67.71;102900.63;5100758;27;45297;-47
2022/01/24 00:32:05;;;;;;;;;38.25;30.75;;;;;4.66;68.47;102894.50;5100297;27;45960;-45
2022/01/24 00:34:30;;;;;;;;;35.25;27.75;;;;;4.65;68.67;102890.16;5100358;27;45392;-45
2022/01/24 00:36:56;;;;;;;;;58.25;35.00;;;;;4.61;68.31;102885.91;5100484;27;45276;-45
2022/01/24 00:39:22;;;;;;;;;48.25;33.75;;;;;4.63;68.28;102891.97;5100574;27;45532;-50
2022/01/24 00:44:43;;;;;;;;;38.75;29.75;;;;;4.63;68.11;102883.19;5100387;27;45318;-46
2022/01/24 00:47:22;;;;;;;;;37.75;28.50;;;;;4.60;67.57;102886.81;5100222;27;45345;-47
2022/01/24 00:55:15;;;;;;;;;33.75;27.75;;;;;4.59;68.51;102878.94;5099882;27;45292;-46
2022/01/24 00:57:41;;;;;;;;;40.25;32.25;;;;;4.56;68.29;102879.94;5099975;27;45308;-48
2022/01/24 01:00:07;;;;;;;;;34.75;30.75;;;;;4.56;68.36;102868.53;5116397;27;45429;-47
2022/01/24 01:02:32;;;;;;;;;42.50;30.50;;;;;4.54;67.86;102871.22;5099689;27;46180;-47
2022/01/24 01:05:13;;;;;;;;;41.50;31.25;;;;;4.41;67.90;102854.13;5100004;27;45441;-45
2022/01/24 01:18:03;;;;;;;;;45.00;33.75;;;;;4.52;68.55;102861.66;5100099;27;45294;-45
2022/01/24 01:18:55;;;;;;;;;43.75;32.50;;;;;4.37;68.56;102849.88;5099863;27;45343;-46
2022/01/24 01:21:20;;;;;;;;;35.00;29.50;;;;;4.44;68.40;102859.28;5099481;27;45464;-47
2022/01/24 01:23:52;;;;;;;;;42.00;31.50;;;;;4.43;69.08;102868.13;5098872;27;45490;-44
2022/01/24 01:29:03;;;;;;;;;39.25;30.50;;;;;4.40;67.96;102868.22;5099531;27;45360;-47
2022/01/24 01:34:17;;;;;;;;;43.25;33.00;;;;;4.38;69.04;102870.94;5099033;27;45394;-47
2022/01/24 01:55:39;;;;;;;;;33.50;29.50;;;;;4.26;68.96;102863.47;5099009;27;45400;-45
2022/01/24 01:58:17;;;;;;;;;45.25;31.75;;;;;4.26;68.41;102863.47;5099201;27;45375;-47
2022/01/24 02:00:55;;;;;;;;;40.75;28.00;;;;;4.24;68.30;102863.50;5098109;27;45348;-48
2022/01/24 02:03:22;;;;;;;;;45.00;36.50;;;;;4.23;69.08;102866.19;5099088;27;45429;-46
2022/01/24 02:05:48;;;;;;;;;39.25;23.75;;;;;4.23;68.91;102866.19;5098597;27;45456;-45
2022/01/24 02:08:13;;;;;;;;;39.25;32.25;;;;;4.22;69.06;102864.47;5098916;27;45321;-46
2022/01/24 02:10:41;;;;;;;;;40.50;32.25;;;;;4.21;69.61;102866.25;5098919;27;45424;-45
2022/01/24 02:13:08;;;;;;;;;40.75;30.75;;;;;4.21;68.89;102868.88;5098962;27;45581;-47
2022/01/24 02:25:54;;;;;;;;;42.00;34.50;;;;;4.19;69.48;102867.22;5098296;27;46150;-49
2022/01/24 02:28:21;;;;;;;;;53.00;38.00;;;;;4.16;69.22;102862.91;5098420;27;45338;-47
2022/01/24 02:33:34;;;;;;;;;49.25;41.25;;;;;4.12;69.39;102856.00;5083371;27;45281;-45
2022/01/24 02:36:00;;;;;;;;;58.50;46.50;;;;;4.08;69.50;102857.03;5098154;27;45988;-45
2022/01/24 02:38:48;;;;;;;;;56.75;38.25;;;;;4.02;69.13;102848.50;5098276;27;45287;-45
2022/01/24 02:49:35;;;;;;;;;48.50;35.00;;;;;3.90;69.14;102850.63;5098411;27;45304;-45
2022/01/24 02:52:03;;;;;;;;;54.00;38.25;;;;;3.88;69.18;102844.56;5098103;27;45365;-46
2022/01/24 02:54:32;;;;;;;;;62.50;47.25;;;;;3.85;70.15;102833.28;5098185;27;45520;-47
2022/01/24 02:56:57;;;;;;;;;46.75;38.00;;;;;3.82;69.40;102841.28;5098130;27;47212;-45
2022/01/24 02:59:25;;;;;;;;;59.75;41.25;;;;;3.80;69.58;102832.56;5098070;27;45654;-49
2022/01/24 03:01:51;;;;;;;;;52.75;40.00;;;;;3.79;69.25;102833.47;5098162;27;45384;-45
2022/01/24 03:04:16;;;;;;;;;52.00;35.00;;;;;3.71;70.26;102817.97;5098287;27;45390;-46
2022/01/24 03:06:42;;;;;;;;;49.00;38.25;;;;;3.77;69.69;102825.63;5097582;27;45366;-45
2022/01/24 03:09:09;;;;;;;;;50.75;41.50;;;;;3.77;69.88;102828.25;5097856;27;45341;-46
2022/01/24 03:14:27;;;;;;;;;49.50;33.50;;;;;3.77;69.01;102832.66;5015234;28;45405;-43
2022/01/24 03:16:53;;;;;;;;;38.75;32.50;;;;;3.77;69.35;102830.03;5014762;28;46153;-50
2022/01/24 03:19:18;;;;;;;;;52.00;33.25;;;;;3.75;69.65;102827.47;5014798;28;45846;-48
2022/01/24 03:21:44;;;;;;;;;41.00;37.50;;;;;3.74;69.29;102820.47;5014518;28;45659;-44
2022/01/24 03:24:10;;;;;;;;;48.00;33.50;;;;;3.65;70.01;102811.09;5015008;28;45361;-47
2022/01/24 03:26:36;;;;;;;;;50.50;32.25;;;;;3.72;69.71;102824.94;5014790;28;45349;-46
2022/01/24 03:29:02;;;;;;;;;43.00;32.25;;;;;3.72;69.51;102817.03;5014580;28;45463;-50
2022/01/24 03:31:27;;;;;;;;;43.00;33.50;;;;;3.72;70.04;102817.03;5014795;28;45443;-45
2022/01/24 03:33:52;;;;;;;;;46.00;35.75;;;;;3.61;69.76;102804.22;5014803;28;45416;-52
2022/01/24 03:36:18;;;;;;;;;44.00;33.75;;;;;3.68;69.57;102824.16;4997945;28;46650;-46
2022/01/24 03:38:43;;;;;;;;;46.75;37.00;;;;;3.68;69.71;102816.28;5014464;28;45350;-44
2022/01/24 03:41:09;;;;;;;;;57.00;35.75;;;;;3.62;70.05;102805.94;4997723;28;45480;-43
2022/01/24 03:43:34;;;;;;;;;36.00;29.75;;;;;3.66;69.68;102812.81;5014992;28;45294;-46
2022/01/24 03:46:14;;;;;;;;;40.00;27.00;;;;;3.66;70.32;102809.31;5014430;28;46291;-45
2022/01/24 03:48:45;;;;;;;;;39.50;33.25;;;;;3.66;69.72;102810.19;5014387;28;45465;-46
2022/01/24 03:51:11;;;;;;;;;52.00;40.75;;;;;3.65;69.59;102816.38;5048273;27;45302;-47
2022/01/24 03:53:37;;;;;;;;;42.00;33.75;;;;;3.65;70.14;102811.09;5097697;27;45547;-46
2022/01/24 03:56:03;;;;;;;;;38.00;33.25;;;;;3.65;69.93;102812.88;5097372;27;45273;-47
2022/01/24 03:58:29;;;;;;;;;47.75;36.25;;;;;3.67;69.74;102814.56;5100294;27;45373;-46
2022/01/24 04:00:58;;;;;;;;;48.75;35.25;;;;;3.56;70.51;102784.25;5100856;27;45977;-45
2022/01/24 04:03:23;;;;;;;;;43.00;31.25;;;;;3.64;69.66;102798.88;5101407;27;45471;-48
2022/01/24 04:05:49;;;;;;;;;39.25;30.75;;;;;3.65;70.25;102805.84;5100766;27;45927;-44
2022/01/24 04:08:14;;;;;;;;;41.75;31.50;;;;;3.56;69.92;102790.38;5100546;27;45181;-45
2022/01/24 04:10:42;;;;;;;;;35.00;30.25;;;;;3.65;70.26;102805.84;5101122;27;45242;-46
2022/01/24 04:13:22;;;;;;;;;32.00;29.00;;;;;3.63;69.62;102785.78;5101048;27;45511;-46
2022/01/24 04:24:07;;;;;;;;;42.25;29.75;;;;;3.65;68.99;102790.03;5018524;28;45422;-47
2022/01/24 04:26:34;;;;;;;;;36.75;30.75;;;;;3.63;69.58;102791.03;5018318;28;46013;-48
2022/01/24 04:29:00;;;;;;;;;38.00;27.50;;;;;3.63;70.12;102791.88;5018462;28;45384;-45
2022/01/24 04:31:27;;;;;;;;;48.50;37.50;;;;;3.61;69.83;102788.44;5018128;28;45508;-45
2022/01/24 04:33:53;;;;;;;;;47.50;35.25;;;;;3.60;69.60;102788.50;5018167;28;45403;-46
2022/01/24 04:36:19;;;;;;;;;39.75;30.25;;;;;3.59;70.21;102795.53;5017811;28;45440;-51
2022/01/24 04:38:45;;;;;;;;;42.50;33.00;;;;;3.57;70.15;102799.97;5017120;28;45416;-47
2022/01/24 04:41:24;;;;;;;;;42.00;33.00;;;;;3.58;69.83;102801.72;5017222;28;45551;-47
2022/01/24 04:46:48;;;;;;;;;41.75;27.25;;;;;3.55;69.65;102799.19;5017302;28;46045;-46
2022/01/24 04:54:44;;;;;;;;;51.25;34.00;;;;;3.48;70.11;102798.50;5017492;28;45519;-47
2022/01/24 04:57:19;;;;;;;;;40.25;32.50;;;;;3.44;70.67;102801.28;5028869;27;45360;-52
2022/01/24 04:59:47;;;;;;;;;41.00;31.50;;;;;3.44;70.46;102796.03;5100009;27;45343;-46
2022/01/24 05:02:14;;;;;;;;;32.50;30.50;;;;;3.45;69.81;102803.00;5099892;27;45435;-47
2022/01/24 05:04:39;;;;;;;;;57.00;37.25;;;;;3.35;70.43;102786.66;5100346;27;45502;-44
2022/01/24 05:07:05;;;;;;;;;46.50;31.75;;;;;3.39;70.48;102793.56;5099866;27;45428;-48
2022/01/24 05:09:38;;;;;;;;;38.50;33.75;;;;;3.40;70.02;102800.53;5098699;27;45265;-46
2022/01/24 05:12:12;;;;;;;;;43.50;31.00;;;;;3.38;70.50;102801.50;5081641;27;45425;-46
2022/01/24 05:25:33;;;;;;;;;34.75;27.25;;;;;3.28;70.44;102805.31;5099779;27;45318;-48
2022/01/24 05:27:59;;;;;;;;;47.50;33.00;;;;;3.27;70.32;102804.47;5099647;27;46092;-46
2022/01/24 05:30:24;;;;;;;;;40.25;35.00;;;;;3.25;70.42;102801.91;5099559;27;45418;-52
2022/01/24 05:32:49;;;;;;;;;40.50;29.50;;;;;3.29;70.22;102809.66;5115702;27;45814;-50
2022/01/24 05:35:15;;;;;;;;;41.25;29.75;;;;;3.28;71.06;102792.16;5099744;27;45221;-49
2022/01/24 05:37:40;;;;;;;;;56.00;40.75;;;;;3.30;70.47;102795.63;5099135;27;45463;-44
2022/01/24 05:40:06;;;;;;;;;36.75;24.50;;;;;3.28;70.54;102794.81;5099045;27;45330;-45
2022/01/24 05:42:32;;;;;;;;;33.00;27.75;;;;;3.25;70.72;102799.28;5099301;27;45392;-49
2022/01/24 05:44:58;;;;;;;;;50.50;40.50;;;;;3.24;71.07;102788.78;5099742;27;45287;-43
2022/01/24 05:47:24;;;;;;;;;44.50;36.50;;;;;3.14;70.54;102782.97;5099024;27;45238;-53
2022/01/24 05:49:49;;;;;;;;;49.25;33.75;;;;;3.23;70.58;102795.81;5080494;27;45283;-46
2022/01/24 05:52:14;;;;;;;;;46.00;35.00;;;;;3.18;70.46;102781.09;5099303;27;45426;-47
2022/01/24 05:54:40;;;;;;;;;44.50;35.25;;;;;3.18;71.04;102794.25;5099191;27;45322;-45
2022/01/24 05:57:07;;;;;;;;;37.75;35.75;;;;;3.15;71.05;102789.94;5098013;27;45993;-46
2022/01/24 05:59:33;;;;;;;;;51.00;39.50;;;;;3.09;71.10;102784.88;5098960;27;45372;-46
2022/01/24 06:01:59;;;;;;;;;32.25;30.75;;;;;3.12;70.81;102795.31;5099141;27;45347;-47
2022/01/24 06:04:24;;;;;;;;;44.75;33.50;;;;;3.12;70.84;102797.94;5099373;27;45253;-50
2022/01/24 06:06:50;;;;;;;;;45.75;36.00;;;;;3.14;70.69;102797.88;5098559;27;46129;-56
2022/01/24 06:09:15;;;;;;;;;52.00;35.00;;;;;3.11;70.92;102793.56;5098759;27;45460;-47
2022/01/24 06:11:42;;;;;;;;;41.00;32.75;;;;;3.09;70.80;102789.28;5098820;27;45056;-46
2022/01/24 06:14:08;;;;;;;;;37.50;33.75;;;;;3.06;71.17;102790.22;5098929;27;45425;-44
2022/01/24 06:16:33;;;;;;;;;42.00;34.00;;;;;3.05;70.89;102806.06;5098528;27;47210;-45
2022/01/24 06:18:59;;;;;;;;;40.75;30.50;;;;;3.00;71.40;102796.53;5098569;27;45259;-47
2022/01/24 06:21:24;;;;;;;;;53.00;37.75;;;;;2.95;71.24;102785.31;5097267;27;45380;-50
2022/01/24 06:23:49;;;;;;;;;58.00;39.25;;;;;3.00;71.38;102798.31;5098579;27;45284;-47
2022/01/24 06:26:15;;;;;;;;;38.75;32.75;;;;;3.04;71.12;102801.72;5098514;27;47242;-46
2022/01/24 06:28:40;;;;;;;;;50.00;39.00;;;;;3.01;70.61;102794.78;5098691;27;45318;-46
2022/01/24 06:31:06;;;;;;;;;52.75;34.50;;;;;3.05;71.43;102804.28;5098657;27;45807;-45
2022/01/24 06:33:32;;;;;;;;;48.50;34.50;;;;;3.04;71.28;102802.56;5098715;27;45288;-44
2022/01/24 06:35:58;;;;;;;;;48.50;31.50;;;;;3.07;71.12;102809.50;5098417;27;46247;-43
2022/01/24 06:38:24;;;;;;;;;57.75;36.25;;;;;3.08;71.14;102809.47;5098472;27;45351;-46
2022/01/24 06:40:49;;;;;;;;;44.50;32.00;;;;;3.07;71.41;102806.84;5098147;27;45314;-46
2022/01/24 06:43:15;;;;;;;;;35.75;32.25;;;;;3.08;71.32;102804.19;5098622;27;45353;-46
2022/01/24 06:45:40;;;;;;;;;43.25;33.75;;;;;3.07;71.50;102796.34;5098192;27;46106;-43
2022/01/24 06:48:06;;;;;;;;;47.25;33.50;;;;;3.04;71.04;102794.69;5098190;27;45250;-44
2022/01/24 06:50:31;;;;;;;;;40.00;35.00;;;;;3.05;71.15;102806.91;5098347;27;45221;-46
2022/01/24 06:52:56;;;;;;;;;42.25;33.25;;;;;3.07;70.99;102806.84;5098606;27;45335;-45
2022/01/24 06:55:22;;;;;;;;;48.00;31.25;;;;;3.08;71.08;102805.97;5097901;27;45380;-51
2022/01/24 06:57:47;;;;;;;;;44.50;28.00;;;;;3.06;71.45;102811.25;5098250;27;45299;-56
2022/01/24 07:00:13;;;;;;;;;30.50;28.00;;;;;3.09;71.13;102820.84;5098154;27;45213;-59
2022/01/24 07:02:38;;;;;;;;;39.75;32.75;;;;;3.06;71.05;102806.00;5098464;27;45248;-45
2022/01/24 07:05:04;;;;;;;;;48.75;34.00;;;;;3.04;71.17;102804.34;5098279;27;46181;-47
2022/01/24 07:07:30;;;;;;;;;37.50;30.50;;;;;3.09;70.94;102816.44;5098008;27;45512;-46
2022/01/24 07:09:55;;;;;;;;;49.00;33.00;;;;;3.08;70.86;102814.72;5098317;27;45480;-58
2022/01/24 07:12:22;;;;;;;;;37.25;33.00;;;;;3.04;70.85;102810.47;5098329;27;45460;-46
2022/01/24 07:14:49;;;;;;;;;41.25;32.00;;;;;3.08;71.38;102819.13;5097913;27;46018;-47
2022/01/24 07:17:30;;;;;;;;;46.50;37.25;;;;;3.07;71.06;102815.59;5097849;27;45313;-48
2022/01/24 07:19:55;;;;;;;;;32.25;27.00;;;;;3.07;71.05;102820.88;5098133;27;45314;-47
2022/01/24 07:22:20;;;;;;;;;47.00;34.75;;;;;3.08;71.30;102824.38;5097952;27;45436;-45
2022/01/24 07:24:46;;;;;;;;;50.25;39.75;;;;;3.09;71.45;102816.44;5097520;27;46293;-46
2022/01/24 07:27:12;;;;;;;;;52.25;34.50;;;;;3.10;70.65;102828.66;5097649;27;45255;-46
2022/01/24 07:29:37;;;;;;;;;42.00;31.50;;;;;3.10;70.71;102825.19;5097958;27;45434;-52
2022/01/24 07:32:03;;;;;;;;;46.75;36.50;;;;;3.11;71.21;102819.00;5097931;27;45346;-46
2022/01/24 07:34:28;;;;;;;;;35.50;30.50;;;;;3.12;71.33;102821.59;5097595;27;46071;-44
2022/01/24 07:36:55;;;;;;;;;35.75;27.50;;;;;3.11;71.45;102817.22;5097857;27;45286;-46
2022/01/24 07:39:21;;;;;;;;;47.75;33.00;;;;;3.13;71.01;102818.06;5097730;27;45250;-46
2022/01/24 07:41:47;;;;;;;;;53.00;38.50;;;;;3.13;70.99;102818.06;5097670;27;45444;-47
2022/01/24 07:44:14;;;;;;;;;43.50;31.00;;;;;3.11;70.54;102813.75;5097659;27;46055;-47
2022/01/24 07:46:40;;;;;;;;;44.00;31.50;;;;;3.12;70.89;102816.34;5097487;27;45361;-46
2022/01/24 07:49:08;;;;;;;;;44.25;36.00;;;;;3.14;70.85;102816.28;5097816;27;45306;-47
2022/01/24 07:51:34;;;;;;;;;44.25;35.50;;;;;3.04;71.26;102805.22;5097145;27;45303;-48
2022/01/24 07:54:00;;;;;;;;;40.00;32.00;;;;;3.17;70.58;102824.94;5096743;27;45344;-46
2022/01/24 07:56:25;;;;;;;;;40.00;32.25;;;;;3.17;70.90;102814.44;5096361;27;45402;-47
2022/01/24 07:58:50;;;;;;;;;52.25;36.75;;;;;3.17;70.81;102824.94;5096955;27;45762;-45
2022/01/24 08:01:16;;;;;;;;;46.50;34.75;;;;;3.16;70.38;102820.59;5097050;27;45401;-49
2022/01/24 08:03:42;;;;;;;;;49.25;36.25;;;;;3.18;70.39;102823.19;5078141;27;46202;-46
2022/01/24 08:06:08;;;;;;;;;60.75;42.00;;;;;3.24;70.76;102831.75;5096449;27;45392;-51
2022/01/24 08:08:34;;;;;;;;;37.50;27.25;;;;;3.22;70.19;102832.69;5096754;27;45414;-45
2022/01/24 08:10:59;;;;;;;;;45.75;32.50;;;;;3.28;69.95;102839.53;5096606;27;45353;-48
2022/01/24 08:13:25;;;;;;;;;48.75;35.25;;;;;3.29;70.36;102841.22;5096342;27;45970;-45
2022/01/24 08:15:50;;;;;;;;;44.25;33.25;;;;;3.28;70.48;102840.38;5096430;27;45321;-46
2022/01/24 08:18:16;;;;;;;;;42.75;35.25;;;;;3.29;70.12;102833.34;5096360;27;45236;-47
2022/01/24 08:20:41;;;;;;;;;57.75;35.00;;;;;3.28;70.32;102839.53;5096783;27;45462;-47
2022/01/24 08:23:11;;;;;;;;;43.75;35.50;;;;;3.34;69.79;102844.59;5095680;27;46079;-44
2022/01/24 08:25:37;;;;;;;;;48.25;39.75;;;;;3.36;69.79;102846.25;5096268;27;45714;-47
2022/01/24 08:28:03;;;;;;;;;43.25;34.00;;;;;3.37;70.25;102849.75;5096372;27;45428;-46
2022/01/24 08:30:29;;;;;;;;;46.25;33.75;;;;;3.34;70.16;102847.22;5095579;27;45383;-46
2022/01/24 08:32:54;;;;;;;;;55.50;42.00;;;;;3.34;69.85;102849.88;5095961;27;46076;-47
2022/01/24 08:35:21;;;;;;;;;50.25;40.50;;;;;3.39;69.83;102850.56;5095160;27;45413;-46
2022/01/24 08:37:47;;;;;;;;;49.25;38.25;;;;;3.42;69.82;102850.47;5095946;27;45436;-47
2022/01/24 08:40:21;;;;;;;;;47.00;35.50;;;;;3.46;69.42;102847.69;5095818;27;45453;-47
2022/01/24 08:42:56;;;;;;;;;49.75;34.25;;;;;3.49;69.70;102849.34;5096145;27;46524;-44
2022/01/24 08:48:06;;;;;;;;;42.75;35.00;;;;;3.59;69.54;102849.94;5099818;27;45421;-51
2022/01/24 08:50:31;;;;;;;;;36.50;34.00;;;;;3.64;69.43;102855.91;5099587;27;45563;-46
2022/01/24 08:52:59;;;;;;;;;43.00;34.00;;;;;3.63;69.07;102856.81;5099165;27;47131;-47
2022/01/24 08:55:28;;;;;;;;;55.75;37.50;;;;;3.67;69.53;102851.41;5081770;27;45875;-46
2022/01/24 08:57:55;;;;;;;;;47.50;34.00;;;;;3.71;69.24;102850.41;5099562;27;45536;-45
2022/01/24 09:00:21;;;;;;;;;59.75;39.00;;;;;3.77;69.68;102859.00;5099539;27;45403;-49
2022/01/24 09:02:46;;;;;;;;;54.25;34.50;;;;;3.83;68.78;102858.78;5099395;27;46400;-47
2022/01/24 09:05:12;;;;;;;;;43.75;37.50;;;;;3.89;69.67;102859.44;5098956;27;45433;-49
2022/01/24 09:07:37;;;;;;;;;51.75;40.75;;;;;3.96;68.61;102860.06;5099415;27;45448;-45
2022/01/24 09:10:06;;;;;;;;;50.75;38.50;;;;;4.01;68.02;102863.44;5099295;27;45382;-45
2022/01/24 09:12:32;;;;;;;;;46.50;32.25;;;;;4.09;68.63;102868.41;5098718;27;47247;-47
2022/01/24 09:14:57;;;;;;;;;44.50;30.25;;;;;4.13;67.79;102859.50;5099529;27;45801;-45
2022/01/24 09:17:22;;;;;;;;;51.75;41.25;;;;;4.20;68.04;102863.66;5099234;27;45383;-52
2022/01/24 09:19:48;;;;;;;;;43.75;36.50;;;;;4.28;67.37;102852.84;5099165;27;45180;-47
2022/01/24 09:22:13;;;;;;;;;44.75;35.75;;;;;4.36;68.37;102856.06;5099147;27;45362;-53
2022/01/24 09:24:38;;;;;;;;;45.75;33.50;;;;;4.49;67.50;102862.63;5098759;27;45433;-45
2022/01/24 09:27:05;;;;;;;;;48.25;36.75;;;;;4.60;67.48;102859.59;5098869;27;45771;-46
2022/01/24 09:29:31;;;;;;;;;51.00;36.75;;;;;4.73;67.32;102864.38;5099719;27;45447;-48
2022/01/24 09:31:57;;;;;;;;;53.75;38.00;;;;;4.90;67.01;102857.59;5099386;27;45511;-45
2022/01/24 09:34:23;;;;;;;;;46.75;35.50;;;;;5.08;66.38;102861.31;5100061;27;45469;-46
2022/01/24 09:36:49;;;;;;;;;43.25;29.00;;;;;6.79;63.62;102861.16;5100058;27;45283;-46
2022/01/24 09:39:16;;;;;;;;;41.25;33.50;;;;;9.14;59.45;102848.31;5100142;27;45490;-44
2022/01/24 09:41:42;;;;;;;;;37.50;33.25;;;;;10.80;53.79;102847.34;5100043;27;45272;-46
2022/01/24 09:44:07;;;;;;;;;53.75;38.00;;;;;12.05;50.38;102843.56;5100217;27;45456;-45
2022/01/24 09:46:37;;;;;;;;;46.75;35.25;;;;;13.00;48.94;102837.75;5100151;27;45369;-47
2022/01/24 09:49:04;;;;;;;;;46.00;34.00;;;;;13.82;46.59;102837.91;5099474;27;45456;-46
2022/01/24 09:51:30;;;;;;;;;46.75;35.75;;;;;14.47;43.77;102838.16;5098157;27;46140;-49
2022/01/24 09:53:56;;;;;;;;;46.75;35.50;;;;;14.96;42.78;102847.69;5079472;27;45536;-43
2022/01/24 09:56:21;;;;;;;;;46.75;39.00;;;;;15.53;40.53;102839.47;5097511;27;45369;-46
2022/01/24 09:58:46;;;;;;;;;41.25;32.75;;;;;16.03;40.48;102845.97;5098576;27;45379;-46
2022/01/24 10:01:14;;;;;;;;;50.25;32.25;;;;;16.57;39.24;102846.69;5098045;27;46164;-45
2022/01/24 10:03:59;;;;;;;;;46.00;33.75;;;;;17.02;38.10;102844.47;5098416;27;45427;-47
2022/01/24 10:06:25;;;;;;;;;38.33;32.33;;;;;17.46;36.47;102832.38;5097936;27;45467;-48
2022/01/24 10:08:50;;;;;;;;;40.67;38.00;;;;;17.93;36.16;102842.44;5098223;27;45454;-44
2022/01/24 10:11:17;;;;;;;;;47.33;35.00;;;;;18.39;36.44;102830.84;5097941;27;46090;-46
2022/01/24 10:16:37;;;;;;;;;50.67;37.00;;;;;19.08;35.63;102839.47;5098072;27;45440;-46
2022/01/24 10:19:02;;;;;;;;;37.00;29.33;;;;;19.31;33.87;102829.09;5098131;27;45314;-44
2022/01/24 10:21:28;;;;;;;;;46.00;36.33;;;;;19.53;33.82;102831.31;5097638;27;45390;-49
2022/01/24 10:23:55;;;;;;;;;47.00;34.33;;;;;19.73;33.34;102831.19;5098176;27;45270;-45
2022/01/24 10:26:21;;;;;;;;;45.00;34.33;;;;;19.92;32.43;102822.88;5097998;27;45459;-46
2022/01/24 10:28:46;;;;;;;;;51.33;37.67;;;;;20.06;32.20;102824.19;5098190;27;46047;-46
2022/01/24 10:31:19;;;;;;;;;38.00;32.00;;;;;20.17;31.86;102821.19;5097901;27;45980;-46
2022/01/24 10:34:07;;;;;;;;;38.00;34.33;;;;;19.85;33.66;102821.84;5097836;27;45573;-45
2022/01/24 10:36:39;;;;;;;;;38.33;34.33;;;;;19.27;33.19;102835.78;5097914;27;45410;-46
2022/01/24 10:39:13;;;;;;;;;50.33;36.67;;;;;19.24;32.49;102826.16;5097839;27;45321;-47
2022/01/24 10:41:56;;;;;;;;;35.67;33.00;;;;;19.30;33.54;102830.94;5097768;27;45983;-45
2022/01/24 10:44:29;;;;;;;;;42.33;33.00;;;;;18.34;33.82;102813.41;5097834;27;45428;-45
2022/01/24 10:47:11;;;;;;;;;38.33;33.00;;;;;18.72;33.63;102808.88;5097890;27;45771;-46
2022/01/24 10:49:36;;;;;;;;;38.33;32.33;;;;;19.09;32.36;102811.50;5097062;27;45775;-42
2022/01/24 10:52:13;;;;;;;;;36.67;31.00;;;;;19.18;33.10;102806.03;5097351;27;46434;-45
2022/01/24 10:54:38;;;;;;;;;36.33;31.00;;;;;18.78;32.12;102790.25;5097582;27;45335;-45
2022/01/24 10:57:04;;;;;;;;;38.00;32.67;;;;;17.54;34.36;102801.22;5079256;27;45413;-43
2022/01/24 10:59:29;;;;;;;;;39.67;32.33;;;;;16.31;36.42;102798.81;5097631;27;45330;-46
2022/01/24 11:02:01;;;;;;;;;37.67;33.00;;;;;15.75;37.36;102801.00;5097276;27;46186;-46
2022/01/24 11:04:27;;;;;;;;;37.00;34.00;;;;;16.37;37.10;102802.78;5097378;27;45444;-44
2022/01/24 11:06:56;;;;;;;;;40.00;34.00;;;;;17.43;35.23;102802.19;5096941;27;45682;-57
2022/01/24 11:09:27;;;;;;;;;35.67;29.67;;;;;17.37;34.75;102797.41;5097316;27;45604;-56
2022/01/24 11:11:53;;;;;;;;;39.67;31.67;;;;;16.61;35.97;102794.41;5078645;27;45675;-47
2022/01/24 11:14:20;;;;;;;;;36.00;31.00;;;;;15.78;36.67;102798.06;5097048;27;45235;-45
2022/01/24 11:16:47;;;;;;;;;34.33;31.67;;;;;15.40;37.64;102786.03;5097188;27;45514;-46
2022/01/24 11:19:26;;;;;;;;;33.00;26.33;;;;;15.23;37.82;102785.59;5097751;27;45334;-43
2022/01/24 11:21:53;;;;;;;;;37.33;31.00;;;;;14.86;38.89;102785.06;5096772;27;45437;-46
2022/01/24 11:24:26;;;;;;;;;35.33;30.00;;;;;14.93;38.80;102786.28;5096821;27;45227;-47
2022/01/24 11:26:51;;;;;;;;;39.00;26.00;;;;;14.68;39.60;102786.59;5096741;27;45382;-44
2022/01/24 11:29:18;;;;;;;;;38.00;31.33;;;;;14.72;40.83;102783.53;5097179;27;45540;-44
2022/01/24 11:31:50;;;;;;;;;41.67;35.00;;;;;14.58;39.77;102781.13;5096393;27;46006;-45
2022/01/24 11:34:31;;;;;;;;;40.67;32.67;;;;;14.76;39.97;102786.81;5096662;27;45373;-45
2022/01/24 11:36:58;;;;;;;;;38.33;31.33;;;;;15.03;39.27;102783.69;5096348;27;45459;-44
2022/01/24 11:39:24;;;;;;;;;41.00;32.33;;;;;15.56;38.96;102783.75;5096772;27;45309;-46
2022/01/24 11:41:50;;;;;;;;;39.33;29.33;;;;;16.34;39.60;102777.03;5096338;27;45507;-46
2022/01/24 11:44:18;;;;;;;;;50.00;35.00;;;;;16.90;36.63;102775.69;5096738;27;45441;-47
2022/01/24 11:46:48;;;;;;;;;44.00;35.00;;;;;17.25;35.04;102768.94;5096838;27;45312;-46
2022/01/24 11:49:18;;;;;;;;;46.33;35.33;;;;;17.49;34.93;102774.75;5096689;27;45440;-45
2022/01/24 11:51:47;;;;;;;;;38.33;32.33;;;;;17.80;34.23;102777.28;5096443;27;46069;-46
2022/01/24 11:57:16;;;;;;;;;35.00;32.67;;;;;18.32;33.78;102758.81;5096566;27;45237;-44
2022/01/24 11:59:42;;;;;;;;;37.67;34.00;;;;;18.45;32.82;102751.22;5096672;27;45467;-46
2022/01/24 12:02:13;;;;;;;;;36.67;33.33;;;;;18.69;33.46;102756.06;5096171;27;45522;-46
2022/01/24 12:04:52;;;;;;;;;40.67;31.67;;;;;18.63;33.12;102752.16;5096516;27;45459;-46
2022/01/24 12:07:25;;;;;;;;;37.00;32.67;;;;;18.77;32.84;102758.06;5096618;27;45333;-46
2022/01/24 12:09:52;;;;;;;;;40.00;34.00;;;;;18.81;32.24;102757.59;5095979;27;45446;-45
2022/01/24 12:12:36;;;;;;;;;40.33;33.00;;;;;18.94;32.88;102755.38;5095410;27;46454;-44
2022/01/24 12:15:03;;;;;;;;;41.33;30.67;;;;;19.08;32.96;102758.53;5096120;27;45567;-46
2022/01/24 12:17:50;;;;;;;;;37.33;34.33;;;;;19.10;32.34;102757.38;5096368;27;45458;-45
2022/01/24 12:20:30;;;;;;;;;44.33;34.00;;;;;18.90;31.84;102756.66;5100119;27;45231;-48
2022/01/24 12:23:19;;;;;;;;;49.67;37.33;;;;;18.86;32.55;102757.13;5099515;27;46409;-46
2022/01/24 12:25:54;;;;;;;;;50.67;35.67;;;;;18.99;32.57;102751.38;5056324;28;45297;-46
2022/01/24 12:28:27;;;;;;;;;41.33;36.33;;;;;18.99;32.04;102748.66;5057161;28;45517;-46
2022/01/24 12:31:04;;;;;;;;;39.00;34.33;;;;;18.97;32.42;102742.59;5057713;28;45471;-45
2022/01/24 12:33:38;;;;;;;;;37.67;34.00;;;;;18.92;31.44;102741.19;5057436;28;47032;-47
2022/01/24 12:36:07;;;;;;;;;35.33;30.67;;;;;18.74;31.43;102744.88;5057402;28;45447;-46
2022/01/24 12:38:39;;;;;;;;;36.33;30.33;;;;;18.54;32.32;102750.34;5057616;28;45258;-44
2022/01/24 12:41:26;;;;;;;;;38.33;33.00;;;;;18.22;32.66;102745.41;5057640;28;45468;-46
2022/01/24 12:46:21;;;;;;;;;35.00;30.33;;;;;17.74;33.85;102751.78;5057279;28;45417;-44
2022/01/24 12:48:50;;;;;;;;;42.00;30.33;;;;;17.51;34.27;102729.69;5057168;28;45333;-43
2022/01/24 12:51:16;;;;;;;;;33.00;29.67;;;;;17.33;33.98;102736.78;5057461;28;45293;-45
2022/01/24 12:53:42;;;;;;;;;33.00;26.33;;;;;16.97;34.88;102739.19;5057039;28;45489;-43
2022/01/24 12:56:08;;;;;;;;;32.00;28.00;;;;;16.65;35.89;102734.88;5057037;28;45353;-43
2022/01/24 12:58:41;;;;;;;;;31.00;27.00;;;;;16.18;35.72;102736.38;5056891;28;45567;-43
2022/01/24 13:01:32;;;;;;;;;39.33;31.00;;;;;15.61;37.00;102746.66;5057068;28;45428;-44
2022/01/24 13:04:00;;;;;;;;;38.00;31.67;;;;;15.17;37.82;102747.72;5099085;27;46222;-44
2022/01/24 13:06:28;;;;;;;;;35.33;26.67;;;;;14.67;38.13;102744.69;5099944;27;45394;-49
2022/01/24 13:08:59;;;;;;;;;35.00;29.00;;;;;14.17;39.73;102746.91;5100016;27;45434;-49
2022/01/24 13:11:28;;;;;;;;;29.00;27.33;;;;;13.83;39.85;102749.53;5098696;27;45427;-43
2022/01/24 13:14:11;;;;;;;;;46.00;33.00;;;;;13.54;41.02;102741.06;5099762;27;45392;-45